createdAt,value
2018-02-21T00:02:22.764Z,42.53
2018-02-21T00:04:49.131Z,40.83
2018-02-21T00:07:15.530Z,40.10
2018-02-21T00:09:41.832Z,38.63
2018-02-21T00:12:08.023Z,37.92
2018-02-21T00:14:34.488Z,39.63
2018-02-21T00:17:00.793Z,39.22
2018-02-21T00:19:26.986Z,40.80
2018-02-21T00:21:53.338Z,45.47
2018-02-21T00:24:19.687Z,42.97
2018-02-21T00:26:46.148Z,43.08
2018-02-21T00:29:12.458Z,44.67
2018-02-21T00:31:38.810Z,42.92
2018-02-21T00:34:05.236Z,43.70
2018-02-21T00:36:31.765Z,45.83
2018-02-21T00:38:57.971Z,44.85
2018-02-21T00:41:24.457Z,44.53
2018-02-21T00:43:50.887Z,45.28
2018-02-21T00:46:17.394Z,44.95
2018-02-21T00:48:43.728Z,44.65
2018-02-21T00:51:10.134Z,45.47
2018-02-21T00:53:36.358Z,47.33
2018-02-21T00:56:02.774Z,45.22
2018-02-21T00:58:29.056Z,42.10
2018-02-21T01:00:55.386Z,44.72
2018-02-21T01:03:21.739Z,45.90
2018-02-21T01:05:48.003Z,41.28
2018-02-21T01:08:14.405Z,34.78
2018-02-21T01:10:40.725Z,34.35
2018-02-21T01:13:06.986Z,31.27
2018-02-21T01:15:33.320Z,31.27
2018-02-21T01:17:59.703Z,27.23
2018-02-21T01:20:25.991Z,29.23
2018-02-21T01:22:52.240Z,27.15
2018-02-21T01:25:18.634Z,26.02
2018-02-21T01:27:44.956Z,25.80
2018-02-21T01:30:11.323Z,25.58
2018-02-21T01:32:37.716Z,25.02
2018-02-21T01:35:04.203Z,25.95
2018-02-21T01:37:30.513Z,24.85
2018-02-21T01:39:56.786Z,28.02
2018-02-21T01:42:23.113Z,26.67
2018-02-21T01:44:49.508Z,26.52
2018-02-21T01:47:15.842Z,25.83
2018-02-21T01:49:42.173Z,26.27
2018-02-21T01:52:08.567Z,25.15
2018-02-21T01:54:34.953Z,25.67
2018-02-21T01:57:01.199Z,26.52
2018-02-21T01:59:27.443Z,26.50
2018-02-21T02:01:53.889Z,26.37
2018-02-21T02:04:20.244Z,25.85
2018-02-21T02:06:46.494Z,26.83
2018-02-21T02:09:12.787Z,25.67
2018-02-21T02:11:39.124Z,26.08
2018-02-21T02:14:05.591Z,25.00
2018-02-21T02:16:32.127Z,24.33
2018-02-21T02:18:58.477Z,25.73
2018-02-21T02:21:24.858Z,27.27
2018-02-21T02:23:51.222Z,25.65
2018-02-21T02:26:17.634Z,26.02
2018-02-21T02:28:43.997Z,26.70
2018-02-21T02:31:10.455Z,26.50
2018-02-21T02:33:36.705Z,24.63
2018-02-21T02:36:03.048Z,26.52
2018-02-21T02:38:35.358Z,25.75
2018-02-21T02:41:01.608Z,25.58
2018-02-21T02:43:27.852Z,26.23
2018-02-21T02:45:54.239Z,24.87
2018-02-21T02:48:20.550Z,25.20
2018-02-21T02:50:46.958Z,25.98
2018-02-21T02:53:13.261Z,27.70
2018-02-21T02:55:39.554Z,25.52
2018-02-21T02:58:05.943Z,25.60
2018-02-21T03:00:32.437Z,26.23
2018-02-21T03:02:58.764Z,26.98
2018-02-21T03:05:25.054Z,26.42
2018-02-21T03:07:51.376Z,26.73
2018-02-21T03:10:17.826Z,25.45
2018-02-21T03:12:44.250Z,25.62
2018-02-21T03:15:10.558Z,25.85
2018-02-21T03:17:36.901Z,25.90
2018-02-21T03:20:03.198Z,26.83
2018-02-21T03:22:29.481Z,26.60
2018-02-21T03:24:55.822Z,26.23
2018-02-21T03:27:22.242Z,25.95
2018-02-21T03:29:48.549Z,25.65
2018-02-21T03:32:20.765Z,25.85
2018-02-21T03:34:47.106Z,25.90
2018-02-21T03:37:13.398Z,25.17
2018-02-21T03:39:39.624Z,27.25
2018-02-21T03:42:05.920Z,25.83
2018-02-21T03:44:32.169Z,25.85
2018-02-21T03:46:58.392Z,25.45
2018-02-21T03:49:24.577Z,25.62
2018-02-21T03:51:50.836Z,26.60
2018-02-21T03:54:17.369Z,25.58
2018-02-21T03:56:43.906Z,26.42
2018-02-21T03:59:10.196Z,25.90
2018-02-21T04:01:36.648Z,25.52
2018-02-21T04:04:02.972Z,25.12
2018-02-21T04:06:29.408Z,26.62
2018-02-21T04:08:55.664Z,24.92
2018-02-21T04:11:22.405Z,25.90
2018-02-21T04:13:48.749Z,25.35
2018-02-21T04:16:15.443Z,25.35
2018-02-21T04:18:41.768Z,27.30
2018-02-21T04:21:08.024Z,26.17
2018-02-21T04:23:34.538Z,26.05
2018-02-21T04:26:00.844Z,27.90
2018-02-21T04:28:27.158Z,27.65
2018-02-21T04:30:53.462Z,27.45
2018-02-21T04:33:19.772Z,26.92
2018-02-21T04:35:46.290Z,27.20
2018-02-21T04:38:12.537Z,27.13
2018-02-21T04:40:38.964Z,28.62
2018-02-21T04:43:05.328Z,28.67
2018-02-21T04:45:31.758Z,28.75
2018-02-21T04:47:57.956Z,29.92
2018-02-21T04:50:24.251Z,31.30
2018-02-21T04:52:50.507Z,28.62
2018-02-21T04:55:22.924Z,28.87
2018-02-21T04:58:04.210Z,28.17
2018-02-21T05:00:30.641Z,30.02
2018-02-21T05:02:56.931Z,29.00
2018-02-21T05:05:23.252Z,29.23
2018-02-21T05:07:49.575Z,28.42
2018-02-21T05:10:16.017Z,31.45
2018-02-21T05:12:42.345Z,30.88
2018-02-21T05:15:08.619Z,30.08
2018-02-21T05:17:34.917Z,30.23
2018-02-21T05:20:01.405Z,30.37
2018-02-21T05:22:27.679Z,32.17
2018-02-21T05:24:53.980Z,30.25
2018-02-21T05:27:20.280Z,31.67
2018-02-21T05:29:46.633Z,29.80
2018-02-21T05:32:12.976Z,30.83
2018-02-21T05:34:39.258Z,32.78
2018-02-21T05:37:05.449Z,31.23
2018-02-21T05:39:31.843Z,29.77
2018-02-21T05:41:58.049Z,31.15
2018-02-21T05:44:24.461Z,31.70
2018-02-21T05:46:50.837Z,31.42
2018-02-21T05:49:17.264Z,33.22
2018-02-21T05:51:43.594Z,30.60
2018-02-21T05:54:09.861Z,32.08
2018-02-21T05:56:36.276Z,32.63
2018-02-21T05:59:02.538Z,31.73
2018-02-21T06:01:28.938Z,33.50
2018-02-21T06:03:55.229Z,31.60
2018-02-21T06:06:21.703Z,31.98
2018-02-21T06:08:48.012Z,32.80
2018-02-21T06:11:14.526Z,33.45
2018-02-21T06:13:40.811Z,32.83
2018-02-21T06:16:07.148Z,31.75
2018-02-21T06:18:33.402Z,30.90
2018-02-21T06:20:59.707Z,30.42
2018-02-21T06:23:25.959Z,32.03
2018-02-21T06:25:52.194Z,31.58
2018-02-21T06:28:18.421Z,34.30
2018-02-21T06:30:44.599Z,30.40
2018-02-21T06:33:10.809Z,32.35
2018-02-21T06:35:37.152Z,32.92
2018-02-21T06:38:03.683Z,32.03
2018-02-21T06:40:29.913Z,33.38
2018-02-21T06:42:56.192Z,34.00
2018-02-21T06:45:22.476Z,33.20
2018-02-21T06:47:48.807Z,32.20
2018-02-21T06:50:15.058Z,33.13
2018-02-21T06:52:41.418Z,30.98
2018-02-21T06:55:07.710Z,31.60
2018-02-21T06:57:34.148Z,33.50
2018-02-21T07:00:00.482Z,32.80
2018-02-21T07:02:37.737Z,31.05
2018-02-21T07:05:05.125Z,33.30
2018-02-21T07:07:31.471Z,32.03
2018-02-21T07:09:57.709Z,33.15
2018-02-21T07:12:24.048Z,33.38
2018-02-21T07:14:50.386Z,32.58
2018-02-21T07:17:16.703Z,32.00
2018-02-21T07:19:43.004Z,33.42
2018-02-21T07:22:09.336Z,33.88
2018-02-21T07:24:35.684Z,33.45
2018-02-21T07:27:01.937Z,32.95
2018-02-21T07:29:28.143Z,33.08
2018-02-21T07:31:54.421Z,33.42
2018-02-21T07:34:20.689Z,32.55
2018-02-21T07:36:47.174Z,32.78
2018-02-21T07:39:13.474Z,33.08
2018-02-21T07:41:39.808Z,32.85
2018-02-21T07:44:06.163Z,32.08
2018-02-21T07:46:32.578Z,32.63
2018-02-21T07:48:58.782Z,35.42
2018-02-21T07:51:25.370Z,35.53
2018-02-21T07:53:51.588Z,31.70
2018-02-21T07:56:17.889Z,32.90
2018-02-21T07:58:44.132Z,32.97
2018-02-21T08:01:10.522Z,31.55
2018-02-21T08:03:36.831Z,32.28
2018-02-21T08:06:03.193Z,33.03
2018-02-21T08:08:29.418Z,32.33
2018-02-21T08:10:55.705Z,34.28
2018-02-21T08:13:21.982Z,32.22
2018-02-21T08:15:48.270Z,33.65
2018-02-21T08:18:14.586Z,30.48
2018-02-21T08:20:40.879Z,34.35
2018-02-21T08:23:07.146Z,32.45
2018-02-21T08:25:33.607Z,34.55
2018-02-21T08:27:59.861Z,31.58
2018-02-21T08:30:26.253Z,30.90
2018-02-21T08:32:52.466Z,33.15
2018-02-21T08:35:18.967Z,31.65
2018-02-21T08:37:45.295Z,31.12
2018-02-21T08:40:11.660Z,30.17
2018-02-21T08:42:37.891Z,30.98
2018-02-21T08:45:04.357Z,29.58
2018-02-21T08:47:30.720Z,30.45
2018-02-21T08:49:57.007Z,31.27
2018-02-21T08:52:23.371Z,30.73
2018-02-21T08:54:49.823Z,29.77
2018-02-21T08:57:16.123Z,32.10
2018-02-21T08:59:42.543Z,30.42
2018-02-21T09:02:08.902Z,29.70
2018-02-21T09:04:35.320Z,31.30
2018-02-21T09:07:01.622Z,31.25
2018-02-21T09:09:27.924Z,31.33
2018-02-21T09:11:54.186Z,30.80
2018-02-21T09:14:20.518Z,31.52
2018-02-21T09:16:46.911Z,30.12
2018-02-21T09:19:13.312Z,28.90
2018-02-21T09:21:39.809Z,31.67
2018-02-21T09:24:06.058Z,29.02
2018-02-21T09:26:32.711Z,31.40
2018-02-21T09:28:58.990Z,30.50
2018-02-21T09:31:25.523Z,30.37
2018-02-21T09:33:51.856Z,30.25
2018-02-21T09:36:18.171Z,32.33
2018-02-21T09:38:44.632Z,30.80
2018-02-21T09:41:10.924Z,30.52
2018-02-21T09:43:37.413Z,32.00
2018-02-21T09:46:03.887Z,30.90
2018-02-21T09:48:30.254Z,28.70
2018-02-21T09:50:56.619Z,29.40
2018-02-21T09:53:23.002Z,30.70
2018-02-21T09:55:49.390Z,28.83
2018-02-21T09:58:15.819Z,27.63
2018-02-21T10:00:42.142Z,28.27
2018-02-21T10:03:08.458Z,28.07
2018-02-21T10:05:34.815Z,28.90
2018-02-21T10:08:01.018Z,28.93
2018-02-21T10:10:27.359Z,31.97
2018-02-21T10:12:53.701Z,29.23
2018-02-21T10:15:19.970Z,29.33
2018-02-21T10:17:46.505Z,29.03
2018-02-21T10:20:12.842Z,29.33
2018-02-21T10:22:39.142Z,29.67
2018-02-21T10:25:05.527Z,30.47
2018-02-21T10:27:31.889Z,28.73
2018-02-21T10:29:58.131Z,29.60
2018-02-21T10:32:24.483Z,26.83
2018-02-21T10:34:50.833Z,27.73
2018-02-21T10:37:17.211Z,27.20
2018-02-21T10:39:43.491Z,27.17
2018-02-21T10:42:09.850Z,27.77
2018-02-21T10:44:36.164Z,26.90
2018-02-21T10:47:02.593Z,26.87
2018-02-21T10:49:28.910Z,26.80
2018-02-21T10:51:55.227Z,27.10
2018-02-21T10:54:21.544Z,26.07
2018-02-21T10:56:47.791Z,26.97
2018-02-21T10:59:14.173Z,27.63
2018-02-21T11:01:40.699Z,27.13
2018-02-21T11:04:07.049Z,26.93
2018-02-21T11:06:33.526Z,27.07
2018-02-21T11:08:59.864Z,26.13
2018-02-21T11:11:26.176Z,26.70
2018-02-21T11:13:52.549Z,26.07
2018-02-21T11:16:19.035Z,26.43
2018-02-21T11:18:45.402Z,28.10
2018-02-21T11:21:11.787Z,27.07
2018-02-21T11:23:38.076Z,27.73
2018-02-21T11:26:04.478Z,27.73
2018-02-21T11:28:30.748Z,25.43
2018-02-21T11:30:57.046Z,28.50
2018-02-21T11:33:23.280Z,25.67
2018-02-21T11:35:49.598Z,27.43
2018-02-21T11:38:16.054Z,26.53
2018-02-21T11:40:42.374Z,25.83
2018-02-21T11:43:08.693Z,27.20
2018-02-21T11:45:35.100Z,26.57
2018-02-21T11:48:01.353Z,26.33
2018-02-21T11:50:27.612Z,27.23
2018-02-21T11:52:54.031Z,25.27
2018-02-21T11:55:20.362Z,28.00
2018-02-21T11:57:46.814Z,24.67
2018-02-21T12:00:13.075Z,26.50
2018-02-21T12:02:39.389Z,25.53
2018-02-21T12:05:05.577Z,33.60
2018-02-21T12:07:31.829Z,25.80
2018-02-21T12:09:58.018Z,25.43
2018-02-21T12:12:24.289Z,23.80
2018-02-21T12:14:50.530Z,23.73
2018-02-21T12:17:16.893Z,23.80
2018-02-21T12:19:43.257Z,22.57
2018-02-21T12:22:09.594Z,22.80
2018-02-21T12:24:36.013Z,21.77
2018-02-21T12:27:02.432Z,23.33
2018-02-21T12:29:28.723Z,22.83
2018-02-21T12:31:58.223Z,23.93
2018-02-21T12:34:24.533Z,23.00
2018-02-21T12:36:50.871Z,22.80
2018-02-21T12:39:23.203Z,23.20
2018-02-21T12:41:49.644Z,24.00
2018-02-21T12:44:16.049Z,24.30
2018-02-21T12:46:42.580Z,26.17
2018-02-21T12:49:08.825Z,26.67
2018-02-21T12:51:35.475Z,27.00
2018-02-21T12:54:01.804Z,29.37
2018-02-21T12:56:28.059Z,28.73
2018-02-21T12:58:54.431Z,28.33
2018-02-21T13:01:20.889Z,27.53
2018-02-21T13:03:47.330Z,28.57
2018-02-21T13:06:13.654Z,28.67
2018-02-21T13:08:39.957Z,28.17
2018-02-21T13:11:06.599Z,29.47
2018-02-21T13:13:32.966Z,29.40
2018-02-21T13:15:59.200Z,30.73
2018-02-21T13:18:25.518Z,30.13
2018-02-21T13:20:51.748Z,29.67
2018-02-21T13:23:17.946Z,30.13
2018-02-21T13:25:44.121Z,30.33
2018-02-21T13:28:10.352Z,29.37
2018-02-21T13:30:36.555Z,29.40
2018-02-21T13:33:02.855Z,30.43
2018-02-21T13:35:29.162Z,30.13
2018-02-21T13:37:55.389Z,30.47
2018-02-21T13:40:21.771Z,29.37
2018-02-21T13:42:47.997Z,28.53
2018-02-21T13:45:14.246Z,29.90
2018-02-21T13:47:40.505Z,28.13
2018-02-21T13:50:06.787Z,29.80
2018-02-21T13:52:33.566Z,29.67
2018-02-21T13:54:59.914Z,28.87
2018-02-21T13:57:26.119Z,28.27
2018-02-21T13:59:52.252Z,28.33
2018-02-21T14:02:18.544Z,29.40
2018-02-21T14:04:44.842Z,28.97
2018-02-21T14:07:11.082Z,30.17
2018-02-21T14:09:37.400Z,30.40
2018-02-21T14:12:03.625Z,28.17
2018-02-21T14:14:31.427Z,28.23
2018-02-21T14:16:57.779Z,28.10
2018-02-21T14:19:24.049Z,28.67
2018-02-21T14:21:50.362Z,27.33
2018-02-21T14:24:16.786Z,28.20
2018-02-21T14:26:43.109Z,24.60
2018-02-21T14:29:09.452Z,24.60
2018-02-21T14:31:35.949Z,25.27
2018-02-21T14:34:02.218Z,23.80
2018-02-21T14:36:28.590Z,24.27
2018-02-21T14:38:54.971Z,25.00
2018-02-21T14:41:21.505Z,24.13
2018-02-21T14:43:47.937Z,21.53
2018-02-21T14:46:14.248Z,22.10
2018-02-21T14:48:40.640Z,19.77
2018-02-21T14:51:07.200Z,19.57
2018-02-21T14:53:33.455Z,20.13
2018-02-21T14:55:59.715Z,19.53
2018-02-21T14:58:26.022Z,19.97
2018-02-21T15:00:52.432Z,19.30
2018-02-21T15:03:18.725Z,19.57
2018-02-21T15:05:45.145Z,18.97
2018-02-21T15:08:11.530Z,19.73
2018-02-21T15:10:37.893Z,18.90
2018-02-21T15:13:04.240Z,19.03
2018-02-21T15:15:30.541Z,19.50
2018-02-21T15:17:56.812Z,18.53
2018-02-21T15:20:23.081Z,19.37
2018-02-21T15:22:49.385Z,17.98
2018-02-21T15:25:15.775Z,17.50
2018-02-21T15:27:42.085Z,17.92
2018-02-21T15:30:08.938Z,18.03
2018-02-21T15:32:35.293Z,17.83
2018-02-21T15:35:01.577Z,18.50
2018-02-21T15:37:27.972Z,18.02
2018-02-21T15:39:54.221Z,17.27
2018-02-21T15:42:20.599Z,16.37
2018-02-21T15:44:47.083Z,18.00
2018-02-21T15:47:13.550Z,19.77
2018-02-21T15:49:39.904Z,18.60
2018-02-21T15:52:06.213Z,20.80
2018-02-21T15:54:32.491Z,19.15
2018-02-21T15:56:58.797Z,21.73
2018-02-21T15:59:25.094Z,19.67
2018-02-21T16:01:51.359Z,19.48
2018-02-21T16:04:17.782Z,19.10
2018-02-21T16:06:44.403Z,19.85
2018-02-21T16:09:10.722Z,21.12
2018-02-21T16:11:37.038Z,20.15
2018-02-21T16:14:03.276Z,20.25
2018-02-21T16:16:29.895Z,20.90
2018-02-21T16:18:56.168Z,21.40
2018-02-21T16:21:22.472Z,21.08
2018-02-21T16:23:48.762Z,21.80
2018-02-21T16:26:15.208Z,19.62
2018-02-21T16:28:41.509Z,21.92
2018-02-21T16:31:07.800Z,20.95
2018-02-21T16:33:34.235Z,19.77
2018-02-21T16:36:00.606Z,22.52
2018-02-21T16:38:26.742Z,22.23
2018-02-21T16:40:52.991Z,21.73
2018-02-21T16:43:19.424Z,22.30
2018-02-21T16:45:45.765Z,22.48
2018-02-21T16:48:12.239Z,21.92
2018-02-21T16:50:38.530Z,23.42
2018-02-21T16:53:04.809Z,22.70
2018-02-21T16:55:31.031Z,22.98
2018-02-21T16:57:57.284Z,22.10
2018-02-21T17:00:23.493Z,21.55
2018-02-21T17:02:53.553Z,22.98
2018-02-21T17:05:19.833Z,22.23
2018-02-21T17:07:46.147Z,22.27
2018-02-21T17:10:12.414Z,22.42
2018-02-21T17:12:38.769Z,21.50
2018-02-21T17:15:05.015Z,23.15
2018-02-21T17:17:31.828Z,23.35
2018-02-21T17:19:58.145Z,22.40
2018-02-21T17:22:24.423Z,22.92
2018-02-21T17:24:50.758Z,23.27
2018-02-21T17:27:16.997Z,23.30
2018-02-21T17:29:43.290Z,22.75
2018-02-21T17:32:09.534Z,21.87
2018-02-21T17:34:35.828Z,23.35
2018-02-21T17:37:02.042Z,23.15
2018-02-21T17:39:28.362Z,23.35
2018-02-21T17:41:54.756Z,22.45
2018-02-21T17:44:21.041Z,23.92
2018-02-21T17:46:47.442Z,22.58
2018-02-21T17:49:13.686Z,23.92
2018-02-21T17:51:40.137Z,23.10
2018-02-21T17:54:06.541Z,24.33
2018-02-21T17:56:33.006Z,24.20
2018-02-21T17:58:59.322Z,25.10
2018-02-21T18:01:25.749Z,23.35
2018-02-21T18:03:52.023Z,23.80
2018-02-21T18:06:18.312Z,24.52
2018-02-21T18:08:44.734Z,23.30
2018-02-21T18:11:11.173Z,24.02
2018-02-21T18:13:37.418Z,24.02
2018-02-21T18:16:03.800Z,25.37
2018-02-21T18:18:30.090Z,24.17
2018-02-21T18:20:56.453Z,24.65
2018-02-21T18:23:22.841Z,25.20
2018-02-21T18:25:49.258Z,23.85
2018-02-21T18:28:15.715Z,23.75
2018-02-21T18:30:42.031Z,25.37
2018-02-21T18:33:08.366Z,24.67
2018-02-21T18:35:34.694Z,24.05
2018-02-21T18:38:01.003Z,25.83
2018-02-21T18:40:27.256Z,24.67
2018-02-21T18:42:53.553Z,28.87
2018-02-21T18:45:19.997Z,38.70
2018-02-21T18:47:46.427Z,25.35
2018-02-21T18:50:12.689Z,24.35
2018-02-21T18:52:39.000Z,23.62
2018-02-21T18:55:05.348Z,24.20
2018-02-21T18:57:31.574Z,23.87
2018-02-21T18:59:57.800Z,23.15
2018-02-21T19:02:24.133Z,23.08
2018-02-21T19:04:50.485Z,25.20
2018-02-21T19:07:16.892Z,23.85
2018-02-21T19:09:43.171Z,24.63
2018-02-21T19:12:09.549Z,23.95
2018-02-21T19:14:35.905Z,23.67
2018-02-21T19:17:02.221Z,24.50
2018-02-21T19:19:28.559Z,24.37
2018-02-21T19:21:54.809Z,23.90
2018-02-21T19:24:21.098Z,24.48
2018-02-21T19:26:47.607Z,23.15
2018-02-21T19:29:13.985Z,24.50
2018-02-21T19:31:40.333Z,23.98
2018-02-21T19:34:06.718Z,24.77
2018-02-21T19:36:33.081Z,24.95
2018-02-21T19:38:59.511Z,25.58
2018-02-21T19:41:25.902Z,24.75
2018-02-21T19:43:52.172Z,24.50
2018-02-21T19:46:18.483Z,24.73
2018-02-21T19:48:44.824Z,24.80
2018-02-21T19:51:11.278Z,25.25
2018-02-21T19:53:37.636Z,24.80
2018-02-21T19:56:04.090Z,24.23
2018-02-21T19:58:30.443Z,23.58
2018-02-21T20:00:56.770Z,24.15
2018-02-21T20:03:23.156Z,24.20
2018-02-21T20:05:49.572Z,23.12
2018-02-21T20:08:15.939Z,25.83
2018-02-21T20:10:42.234Z,22.83
2018-02-21T20:13:08.511Z,23.33
2018-02-21T20:15:34.854Z,24.27
2018-02-21T20:18:01.155Z,25.00
2018-02-21T20:20:27.384Z,23.85
2018-02-21T20:22:53.623Z,22.30
2018-02-21T20:25:20.032Z,22.87
2018-02-21T20:27:46.524Z,23.08
2018-02-21T20:30:12.992Z,23.98
2018-02-21T20:32:39.393Z,23.90
2018-02-21T20:35:05.758Z,23.60
2018-02-21T20:37:32.057Z,22.23
2018-02-21T20:39:58.453Z,23.05
2018-02-21T20:42:24.717Z,23.08
2018-02-21T20:44:51.223Z,22.73
2018-02-21T20:47:17.846Z,22.95
2018-02-21T20:49:44.128Z,22.58
2018-02-21T20:52:10.517Z,22.83
2018-02-21T20:54:36.855Z,21.98
2018-02-21T20:57:03.146Z,23.23
2018-02-21T20:59:29.403Z,21.98
2018-02-21T21:01:55.810Z,22.45
2018-02-21T21:04:22.054Z,19.35
2018-02-21T21:06:48.945Z,20.35
2018-02-21T21:09:15.223Z,20.62
2018-02-21T21:11:45.081Z,19.05
2018-02-21T21:14:12.107Z,20.27
2018-02-21T21:16:38.488Z,19.62
2018-02-21T21:19:23.916Z,18.80
2018-02-21T21:21:50.229Z,19.30
2018-02-21T21:24:16.513Z,18.33
2018-02-21T21:26:43.058Z,19.75
2018-02-21T21:29:09.325Z,18.12
2018-02-21T21:31:35.861Z,18.05
2018-02-21T21:34:02.053Z,17.00
2018-02-21T21:36:28.383Z,18.08
2018-02-21T21:38:54.641Z,16.90
2018-02-21T21:41:21.031Z,15.95
2018-02-21T21:43:47.426Z,15.95
2018-02-21T21:46:13.810Z,16.25
2018-02-21T21:48:40.056Z,17.45
2018-02-21T21:51:06.478Z,17.25
2018-02-21T21:53:32.868Z,16.87
2018-02-21T21:55:59.201Z,17.20
2018-02-21T21:58:25.340Z,16.75
2018-02-21T22:00:51.645Z,15.32
2018-02-21T22:03:17.936Z,16.87
2018-02-21T22:05:44.207Z,16.20
2018-02-21T22:08:10.467Z,15.40
2018-02-21T22:10:37.092Z,16.48
2018-02-21T22:13:03.301Z,15.98
2018-02-21T22:15:29.516Z,16.98
2018-02-21T22:17:55.726Z,16.00
2018-02-21T22:20:22.011Z,17.48
2018-02-21T22:22:48.328Z,17.02
2018-02-21T22:25:14.748Z,16.55
2018-02-21T22:27:40.968Z,16.95
2018-02-21T22:30:07.477Z,16.20
2018-02-21T22:32:33.787Z,16.00
2018-02-21T22:35:00.135Z,15.95
2018-02-21T22:37:26.378Z,16.40
2018-02-21T22:39:52.714Z,16.17
2018-02-21T22:42:19.048Z,16.05
2018-02-21T22:44:45.446Z,15.50
2018-02-21T22:47:11.729Z,16.65
2018-02-21T22:49:37.943Z,16.05
2018-02-21T22:52:04.394Z,15.75
2018-02-21T22:54:30.700Z,15.60
2018-02-21T22:56:56.919Z,15.80
2018-02-21T22:59:23.205Z,15.40
2018-02-21T23:01:49.600Z,14.52
2018-02-21T23:04:15.878Z,14.35
2018-02-21T23:06:42.230Z,15.43
2018-02-21T23:09:08.544Z,15.00
2018-02-21T23:11:34.911Z,14.18
2018-02-21T23:14:01.304Z,14.68
2018-02-21T23:16:27.699Z,14.23
2018-02-21T23:18:54.027Z,16.05
2018-02-21T23:21:20.377Z,14.20
2018-02-21T23:23:46.835Z,14.23
2018-02-21T23:26:13.257Z,13.90
2018-02-21T23:28:39.577Z,14.35
2018-02-21T23:31:05.959Z,13.98
2018-02-21T23:33:32.263Z,13.90
2018-02-21T23:35:58.544Z,14.38
2018-02-21T23:38:24.904Z,13.98
2018-02-21T23:40:51.301Z,14.63
2018-02-21T23:43:17.649Z,13.57
2018-02-21T23:45:43.819Z,12.98
2018-02-21T23:48:10.217Z,13.82
2018-02-21T23:50:36.522Z,13.10
2018-02-21T23:53:02.851Z,13.43
2018-02-21T23:55:29.290Z,14.70
2018-02-21T23:57:55.558Z,13.32
